sensor_id;sensor_type;location;lat;lon;timestamp;P1;durP1;ratioP1;P2;durP2;ratioP2
83026;SDS011;72842;56.038;12.706;2024-01-10T00:01:31;15.90;;;8.57;;
83026;SDS011;72842;56.038;12.706;2024-01-10T00:03:57;16.05;;;8.98;;
83026;SDS011;72842;56.038;12.706;2024-01-10T00:06:22;14.32;;;8.43;;
83026;SDS011;72842;56.038;12.706;2024-01-10T00:08:48;13.38;;;8.32;;
83026;SDS011;72842;56.038;12.706;2024-01-10T00:11:14;14.05;;;8.45;;
83026;SDS011;72842;56.038;12.706;2024-01-10T00:13:39;15.80;;;9.00;;
83026;SDS011;72842;56.038;12.706;2024-01-10T00:16:05;14.80;;;8.38;;
83026;SDS011;72842;56.038;12.706;2024-01-10T00:18:31;15.23;;;8.30;;
83026;SDS011;72842;56.038;12.706;2024-01-10T00:20:56;14.60;;;8.25;;
83026;SDS011;72842;56.038;12.706;2024-01-10T00:23:22;13.18;;;8.77;;
83026;SDS011;72842;56.038;12.706;2024-01-10T00:25:48;12.00;;;7.63;;
83026;SDS011;72842;56.038;12.706;2024-01-10T00:28:13;9.98;;;6.93;;
83026;SDS011;72842;56.038;12.706;2024-01-10T00:30:41;10.90;;;6.75;;
83026;SDS011;72842;56.038;12.706;2024-01-10T00:33:07;12.13;;;6.85;;
83026;SDS011;72842;56.038;12.706;2024-01-10T00:35:32;10.35;;;6.88;;
83026;SDS011;72842;56.038;12.706;2024-01-10T00:37:58;10.00;;;5.85;;
83026;SDS011;72842;56.038;12.706;2024-01-10T00:40:23;11.85;;;6.20;;
83026;SDS011;72842;56.038;12.706;2024-01-10T00:42:49;10.18;;;6.18;;
83026;SDS011;72842;56.038;12.706;2024-01-10T00:45:15;12.80;;;6.07;;
83026;SDS011;72842;56.038;12.706;2024-01-10T00:47:41;11.38;;;7.40;;
83026;SDS011;72842;56.038;12.706;2024-01-10T00:50:06;11.07;;;5.68;;
83026;SDS011;72842;56.038;12.706;2024-01-10T00:52:32;10.77;;;5.95;;
83026;SDS011;72842;56.038;12.706;2024-01-10T00:54:58;8.95;;;5.85;;
83026;SDS011;72842;56.038;12.706;2024-01-10T00:57:23;7.68;;;4.65;;
83026;SDS011;72842;56.038;12.706;2024-01-10T00:59:48;8.32;;;5.05;;
83026;SDS011;72842;56.038;12.706;2024-01-10T01:02:14;7.10;;;4.70;;
83026;SDS011;72842;56.038;12.706;2024-01-10T01:04:39;8.45;;;5.50;;
83026;SDS011;72842;56.038;12.706;2024-01-10T01:07:04;7.95;;;4.95;;
83026;SDS011;72842;56.038;12.706;2024-01-10T01:09:30;6.40;;;4.88;;
83026;SDS011;72842;56.038;12.706;2024-01-10T01:11:55;7.95;;;5.32;;
83026;SDS011;72842;56.038;12.706;2024-01-10T01:14:21;5.90;;;4.07;;
83026;SDS011;72842;56.038;12.706;2024-01-10T01:16:46;6.40;;;4.40;;
83026;SDS011;72842;56.038;12.706;2024-01-10T01:19:12;6.43;;;4.22;;
83026;SDS011;72842;56.038;12.706;2024-01-10T01:21:37;5.90;;;4.43;;
83026;SDS011;72842;56.038;12.706;2024-01-10T01:24:02;7.45;;;4.78;;
83026;SDS011;72842;56.038;12.706;2024-01-10T01:26:28;7.13;;;4.30;;
83026;SDS011;72842;56.038;12.706;2024-01-10T01:28:54;7.55;;;4.90;;
83026;SDS011;72842;56.038;12.706;2024-01-10T01:31:19;6.22;;;4.40;;
83026;SDS011;72842;56.038;12.706;2024-01-10T01:33:45;5.45;;;4.43;;
83026;SDS011;72842;56.038;12.706;2024-01-10T01:36:10;5.70;;;4.45;;
83026;SDS011;72842;56.038;12.706;2024-01-10T01:38:36;5.65;;;4.05;;
83026;SDS011;72842;56.038;12.706;2024-01-10T01:41:01;5.95;;;4.45;;
83026;SDS011;72842;56.038;12.706;2024-01-10T01:43:28;6.22;;;4.82;;
83026;SDS011;72842;56.038;12.706;2024-01-10T01:45:53;5.90;;;4.20;;
83026;SDS011;72842;56.038;12.706;2024-01-10T01:48:20;7.13;;;4.68;;
83026;SDS011;72842;56.038;12.706;2024-01-10T01:50:48;6.18;;;5.25;;
83026;SDS011;72842;56.038;12.706;2024-01-10T01:53:41;5.78;;;5.03;;
83026;SDS011;72842;56.038;12.706;2024-01-10T01:56:09;5.45;;;4.13;;
83026;SDS011;72842;56.038;12.706;2024-01-10T01:58:35;5.05;;;4.10;;
83026;SDS011;72842;56.038;12.706;2024-01-10T02:01:02;6.85;;;4.97;;
83026;SDS011;72842;56.038;12.706;2024-01-10T02:03:33;5.75;;;4.25;;
83026;SDS011;72842;56.038;12.706;2024-01-10T02:05:59;5.70;;;4.50;;
83026;SDS011;72842;56.038;12.706;2024-01-10T02:08:28;5.05;;;4.30;;
83026;SDS011;72842;56.038;12.706;2024-01-10T02:11:00;5.63;;;4.70;;
83026;SDS011;72842;56.038;12.706;2024-01-10T02:13:26;5.72;;;4.47;;
83026;SDS011;72842;56.038;12.706;2024-01-10T02:15:52;6.32;;;5.38;;
83026;SDS011;72842;56.038;12.706;2024-01-10T02:18:19;5.70;;;4.55;;
83026;SDS011;72842;56.038;12.706;2024-01-10T02:20:44;6.03;;;4.70;;
83026;SDS011;72842;56.038;12.706;2024-01-10T02:23:10;5.50;;;4.70;;
83026;SDS011;72842;56.038;12.706;2024-01-10T02:25:36;5.05;;;4.07;;
83026;SDS011;72842;56.038;12.706;2024-01-10T02:28:02;7.30;;;4.80;;
83026;SDS011;72842;56.038;12.706;2024-01-10T02:30:28;5.75;;;4.78;;
83026;SDS011;72842;56.038;12.706;2024-01-10T02:32:54;5.35;;;4.30;;
83026;SDS011;72842;56.038;12.706;2024-01-10T02:35:19;5.25;;;4.50;;
83026;SDS011;72842;56.038;12.706;2024-01-10T02:37:44;5.32;;;4.47;;
83026;SDS011;72842;56.038;12.706;2024-01-10T02:40:10;6.47;;;4.47;;
83026;SDS011;72842;56.038;12.706;2024-01-10T02:42:36;6.00;;;4.70;;
83026;SDS011;72842;56.038;12.706;2024-01-10T02:45:01;5.72;;;4.63;;
83026;SDS011;72842;56.038;12.706;2024-01-10T02:47:27;5.20;;;4.70;;
83026;SDS011;72842;56.038;12.706;2024-01-10T02:49:54;6.40;;;4.68;;
83026;SDS011;72842;56.038;12.706;2024-01-10T02:52:19;5.57;;;5.05;;
83026;SDS011;72842;56.038;12.706;2024-01-10T02:54:45;5.70;;;4.78;;
83026;SDS011;72842;56.038;12.706;2024-01-10T02:57:10;5.05;;;4.55;;
83026;SDS011;72842;56.038;12.706;2024-01-10T02:59:36;5.82;;;4.70;;
83026;SDS011;72842;56.038;12.706;2024-01-10T03:02:01;5.72;;;4.97;;
83026;SDS011;72842;56.038;12.706;2024-01-10T03:04:27;5.53;;;4.57;;
83026;SDS011;72842;56.038;12.706;2024-01-10T03:06:52;5.30;;;4.65;;
83026;SDS011;72842;56.038;12.706;2024-01-10T03:09:18;5.13;;;4.40;;
83026;SDS011;72842;56.038;12.706;2024-01-10T03:11:43;6.28;;;4.70;;
83026;SDS011;72842;56.038;12.706;2024-01-10T03:14:09;6.05;;;4.95;;
83026;SDS011;72842;56.038;12.706;2024-01-10T03:16:36;6.07;;;4.53;;
83026;SDS011;72842;56.038;12.706;2024-01-10T03:19:02;5.50;;;4.80;;
83026;SDS011;72842;56.038;12.706;2024-01-10T03:21:27;5.88;;;4.43;;
83026;SDS011;72842;56.038;12.706;2024-01-10T03:23:56;5.68;;;4.40;;
83026;SDS011;72842;56.038;12.706;2024-01-10T03:26:22;5.97;;;4.40;;
83026;SDS011;72842;56.038;12.706;2024-01-10T03:28:48;5.70;;;4.60;;
83026;SDS011;72842;56.038;12.706;2024-01-10T03:31:14;5.93;;;4.18;;
83026;SDS011;72842;56.038;12.706;2024-01-10T03:33:41;5.20;;;4.07;;
83026;SDS011;72842;56.038;12.706;2024-01-10T03:36:08;5.57;;;4.68;;
83026;SDS011;72842;56.038;12.706;2024-01-10T03:38:37;5.43;;;4.10;;
83026;SDS011;72842;56.038;12.706;2024-01-10T03:41:02;5.20;;;4.25;;
83026;SDS011;72842;56.038;12.706;2024-01-10T03:43:28;5.50;;;4.45;;
83026;SDS011;72842;56.038;12.706;2024-01-10T03:45:53;5.32;;;3.92;;
83026;SDS011;72842;56.038;12.706;2024-01-10T03:48:19;4.72;;;3.85;;
83026;SDS011;72842;56.038;12.706;2024-01-10T03:50:44;5.97;;;5.35;;
83026;SDS011;72842;56.038;12.706;2024-01-10T03:53:09;5.72;;;4.47;;
83026;SDS011;72842;56.038;12.706;2024-01-10T03:55:35;7.25;;;3.97;;
83026;SDS011;72842;56.038;12.706;2024-01-10T03:58:00;7.63;;;3.92;;
83026;SDS011;72842;56.038;12.706;2024-01-10T04:00:26;4.63;;;4.15;;
83026;SDS011;72842;56.038;12.706;2024-01-10T04:02:52;5.13;;;3.80;;
83026;SDS011;72842;56.038;12.706;2024-01-10T04:05:17;5.05;;;4.55;;
83026;SDS011;72842;56.038;12.706;2024-01-10T04:07:44;4.75;;;3.90;;
83026;SDS011;72842;56.038;12.706;2024-01-10T04:10:10;4.70;;;3.88;;
83026;SDS011;72842;56.038;12.706;2024-01-10T04:12:36;5.43;;;4.32;;
83026;SDS011;72842;56.038;12.706;2024-01-10T04:15:05;5.60;;;5.10;;
83026;SDS011;72842;56.038;12.706;2024-01-10T04:17:31;4.95;;;4.45;;
83026;SDS011;72842;56.038;12.706;2024-01-10T04:19:57;4.65;;;3.88;;
83026;SDS011;72842;56.038;12.706;2024-01-10T04:22:25;5.28;;;4.50;;
83026;SDS011;72842;56.038;12.706;2024-01-10T04:24:51;7.13;;;4.45;;
83026;SDS011;72842;56.038;12.706;2024-01-10T04:27:16;5.25;;;4.30;;
83026;SDS011;72842;56.038;12.706;2024-01-10T04:29:43;4.95;;;4.43;;
83026;SDS011;72842;56.038;12.706;2024-01-10T04:32:08;4.93;;;4.18;;
83026;SDS011;72842;56.038;12.706;2024-01-10T04:34:34;4.60;;;4.20;;
83026;SDS011;72842;56.038;12.706;2024-01-10T04:36:59;4.43;;;3.90;;
83026;SDS011;72842;56.038;12.706;2024-01-10T04:39:25;4.18;;;3.75;;
83026;SDS011;72842;56.038;12.706;2024-01-10T04:41:50;4.13;;;3.72;;
83026;SDS011;72842;56.038;12.706;2024-01-10T04:44:16;4.40;;;3.90;;
83026;SDS011;72842;56.038;12.706;2024-01-10T04:46:41;4.50;;;3.75;;
83026;SDS011;72842;56.038;12.706;2024-01-10T04:49:07;5.10;;;3.90;;
83026;SDS011;72842;56.038;12.706;2024-01-10T04:51:32;4.65;;;3.65;;
83026;SDS011;72842;56.038;12.706;2024-01-10T04:53:58;4.63;;;3.72;;
83026;SDS011;72842;56.038;12.706;2024-01-10T04:56:23;5.78;;;4.32;;
83026;SDS011;72842;56.038;12.706;2024-01-10T04:58:49;4.25;;;3.85;;
83026;SDS011;72842;56.038;12.706;2024-01-10T05:01:14;5.60;;;4.10;;
83026;SDS011;72842;56.038;12.706;2024-01-10T05:03:40;5.53;;;4.00;;
83026;SDS011;72842;56.038;12.706;2024-01-10T05:06:05;4.03;;;3.38;;
83026;SDS011;72842;56.038;12.706;2024-01-10T05:08:31;4.18;;;3.30;;
83026;SDS011;72842;56.038;12.706;2024-01-10T05:10:57;4.90;;;3.45;;
83026;SDS011;72842;56.038;12.706;2024-01-10T05:13:23;4.05;;;3.15;;
83026;SDS011;72842;56.038;12.706;2024-01-10T05:15:48;5.90;;;3.85;;
83026;SDS011;72842;56.038;12.706;2024-01-10T05:18:13;4.82;;;4.13;;
83026;SDS011;72842;56.038;12.706;2024-01-10T05:20:40;4.13;;;3.67;;
83026;SDS011;72842;56.038;12.706;2024-01-10T05:23:05;4.63;;;3.45;;
83026;SDS011;72842;56.038;12.706;2024-01-10T05:25:30;5.88;;;3.92;;
83026;SDS011;72842;56.038;12.706;2024-01-10T05:27:56;4.00;;;3.38;;
83026;SDS011;72842;56.038;12.706;2024-01-10T05:30:21;4.90;;;3.47;;
83026;SDS011;72842;56.038;12.706;2024-01-10T05:32:46;5.47;;;3.55;;
83026;SDS011;72842;56.038;12.706;2024-01-10T05:35:12;4.68;;;3.60;;
83026;SDS011;72842;56.038;12.706;2024-01-10T05:37:37;4.40;;;3.83;;
83026;SDS011;72842;56.038;12.706;2024-01-10T05:40:03;4.07;;;3.28;;
83026;SDS011;72842;56.038;12.706;2024-01-10T05:42:32;3.97;;;3.58;;
83026;SDS011;72842;56.038;12.706;2024-01-10T05:44:58;4.40;;;3.90;;
83026;SDS011;72842;56.038;12.706;2024-01-10T05:47:24;4.20;;;3.80;;
83026;SDS011;72842;56.038;12.706;2024-01-10T05:49:50;4.10;;;3.50;;
83026;SDS011;72842;56.038;12.706;2024-01-10T05:52:18;4.15;;;3.72;;
83026;SDS011;72842;56.038;12.706;2024-01-10T05:54:43;4.70;;;3.60;;
83026;SDS011;72842;56.038;12.706;2024-01-10T05:57:09;3.80;;;3.45;;
83026;SDS011;72842;56.038;12.706;2024-01-10T05:59:35;5.25;;;3.58;;
83026;SDS011;72842;56.038;12.706;2024-01-10T06:02:00;5.07;;;4.22;;
83026;SDS011;72842;56.038;12.706;2024-01-10T06:04:27;4.07;;;3.42;;
83026;SDS011;72842;56.038;12.706;2024-01-10T06:06:55;5.57;;;3.22;;
83026;SDS011;72842;56.038;12.706;2024-01-10T06:09:22;4.93;;;3.80;;
83026;SDS011;72842;56.038;12.706;2024-01-10T06:11:48;4.18;;;2.92;;
83026;SDS011;72842;56.038;12.706;2024-01-10T06:14:13;4.07;;;3.55;;
83026;SDS011;72842;56.038;12.706;2024-01-10T06:16:39;4.35;;;3.85;;
83026;SDS011;72842;56.038;12.706;2024-01-10T06:19:05;4.25;;;3.85;;
83026;SDS011;72842;56.038;12.706;2024-01-10T06:21:31;5.03;;;3.95;;
83026;SDS011;72842;56.038;12.706;2024-01-10T06:23:56;4.32;;;3.53;;
83026;SDS011;72842;56.038;12.706;2024-01-10T06:26:22;4.75;;;3.47;;
83026;SDS011;72842;56.038;12.706;2024-01-10T06:28:47;3.80;;;3.42;;
83026;SDS011;72842;56.038;12.706;2024-01-10T06:31:13;4.03;;;3.35;;
83026;SDS011;72842;56.038;12.706;2024-01-10T06:33:39;4.13;;;3.17;;
83026;SDS011;72842;56.038;12.706;2024-01-10T06:36:04;3.50;;;3.20;;
83026;SDS011;72842;56.038;12.706;2024-01-10T06:38:30;3.10;;;2.83;;
83026;SDS011;72842;56.038;12.706;2024-01-10T06:40:56;4.07;;;3.13;;
83026;SDS011;72842;56.038;12.706;2024-01-10T06:43:21;3.97;;;3.60;;
83026;SDS011;72842;56.038;12.706;2024-01-10T06:45:46;5.25;;;3.33;;
83026;SDS011;72842;56.038;12.706;2024-01-10T06:48:13;3.90;;;2.85;;
83026;SDS011;72842;56.038;12.706;2024-01-10T06:50:38;4.45;;;3.42;;
83026;SDS011;72842;56.038;12.706;2024-01-10T06:53:04;4.15;;;3.20;;
83026;SDS011;72842;56.038;12.706;2024-01-10T06:55:30;3.42;;;3.13;;
83026;SDS011;72842;56.038;12.706;2024-01-10T06:57:55;4.22;;;3.13;;
83026;SDS011;72842;56.038;12.706;2024-01-10T07:00:21;4.13;;;3.20;;
83026;SDS011;72842;56.038;12.706;2024-01-10T07:02:47;3.85;;;3.45;;
83026;SDS011;72842;56.038;12.706;2024-01-10T07:05:13;4.22;;;2.97;;
83026;SDS011;72842;56.038;12.706;2024-01-10T07:07:39;5.00;;;3.17;;
83026;SDS011;72842;56.038;12.706;2024-01-10T07:10:05;3.47;;;3.17;;
83026;SDS011;72842;56.038;12.706;2024-01-10T07:12:31;4.60;;;3.25;;
83026;SDS011;72842;56.038;12.706;2024-01-10T07:14:58;4.68;;;3.53;;
83026;SDS011;72842;56.038;12.706;2024-01-10T07:17:23;5.55;;;3.13;;
83026;SDS011;72842;56.038;12.706;2024-01-10T07:19:49;3.55;;;2.63;;
83026;SDS011;72842;56.038;12.706;2024-01-10T07:22:15;3.47;;;2.92;;
83026;SDS011;72842;56.038;12.706;2024-01-10T07:24:40;4.43;;;2.78;;
83026;SDS011;72842;56.038;12.706;2024-01-10T07:27:06;3.97;;;2.92;;
83026;SDS011;72842;56.038;12.706;2024-01-10T07:29:32;3.63;;;2.85;;
83026;SDS011;72842;56.038;12.706;2024-01-10T07:31:59;3.63;;;3.20;;
83026;SDS011;72842;56.038;12.706;2024-01-10T07:34:24;3.83;;;2.78;;
83026;SDS011;72842;56.038;12.706;2024-01-10T07:36:49;3.15;;;2.67;;
83026;SDS011;72842;56.038;12.706;2024-01-10T07:39:15;3.63;;;3.05;;
83026;SDS011;72842;56.038;12.706;2024-01-10T07:41:43;3.10;;;2.53;;
83026;SDS011;72842;56.038;12.706;2024-01-10T07:44:09;5.78;;;3.47;;
83026;SDS011;72842;56.038;12.706;2024-01-10T07:46:35;3.22;;;2.88;;
83026;SDS011;72842;56.038;12.706;2024-01-10T07:49:02;4.47;;;3.35;;
83026;SDS011;72842;56.038;12.706;2024-01-10T07:51:29;3.45;;;2.50;;
83026;SDS011;72842;56.038;12.706;2024-01-10T07:53:55;3.47;;;3.17;;
83026;SDS011;72842;56.038;12.706;2024-01-10T07:56:21;3.28;;;2.80;;
83026;SDS011;72842;56.038;12.706;2024-01-10T07:58:46;3.38;;;3.03;;
83026;SDS011;72842;56.038;12.706;2024-01-10T08:01:11;3.50;;;3.20;;
83026;SDS011;72842;56.038;12.706;2024-01-10T08:03:37;3.50;;;3.20;;
83026;SDS011;72842;56.038;12.706;2024-01-10T08:06:03;4.10;;;3.15;;
83026;SDS011;72842;56.038;12.706;2024-01-10T08:08:28;3.63;;;3.25;;
83026;SDS011;72842;56.038;12.706;2024-01-10T08:10:55;6.32;;;3.40;;
83026;SDS011;72842;56.038;12.706;2024-01-10T08:13:21;3.65;;;2.95;;
83026;SDS011;72842;56.038;12.706;2024-01-10T08:15:46;4.07;;;3.53;;
83026;SDS011;72842;56.038;12.706;2024-01-10T08:18:12;5.85;;;4.05;;
83026;SDS011;72842;56.038;12.706;2024-01-10T08:20:39;5.03;;;3.90;;
83026;SDS011;72842;56.038;12.706;2024-01-10T08:23:04;4.57;;;3.08;;
83026;SDS011;72842;56.038;12.706;2024-01-10T08:25:30;5.40;;;3.55;;
83026;SDS011;72842;56.038;12.706;2024-01-10T08:27:55;5.07;;;3.70;;
83026;SDS011;72842;56.038;12.706;2024-01-10T08:30:22;5.40;;;4.25;;
83026;SDS011;72842;56.038;12.706;2024-01-10T08:32:51;5.07;;;4.03;;
83026;SDS011;72842;56.038;12.706;2024-01-10T08:35:17;4.82;;;4.32;;
83026;SDS011;72842;56.038;12.706;2024-01-10T08:37:44;4.65;;;3.92;;
83026;SDS011;72842;56.038;12.706;2024-01-10T08:40:11;4.47;;;3.58;;
83026;SDS011;72842;56.038;12.706;2024-01-10T08:42:39;4.60;;;4.10;;
83026;SDS011;72842;56.038;12.706;2024-01-10T08:45:05;5.60;;;4.10;;
83026;SDS011;72842;56.038;12.706;2024-01-10T08:47:30;4.50;;;3.92;;
83026;SDS011;72842;56.038;12.706;2024-01-10T08:50:01;5.50;;;4.03;;
83026;SDS011;72842;56.038;12.706;2024-01-10T08:52:27;5.07;;;3.80;;
83026;SDS011;72842;56.038;12.706;2024-01-10T08:54:52;5.10;;;4.60;;
83026;SDS011;72842;56.038;12.706;2024-01-10T08:57:18;5.00;;;4.50;;
83026;SDS011;72842;56.038;12.706;2024-01-10T08:59:43;5.43;;;3.97;;
83026;SDS011;72842;56.038;12.706;2024-01-10T09:02:09;4.38;;;3.72;;
83026;SDS011;72842;56.038;12.706;2024-01-10T09:04:34;5.15;;;4.22;;
83026;SDS011;72842;56.038;12.706;2024-01-10T09:06:59;4.85;;;4.35;;
83026;SDS011;72842;56.038;12.706;2024-01-10T09:09:25;4.72;;;4.00;;
83026;SDS011;72842;56.038;12.706;2024-01-10T09:11:50;5.05;;;3.60;;
83026;SDS011;72842;56.038;12.706;2024-01-10T09:14:16;4.97;;;4.45;;
83026;SDS011;72842;56.038;12.706;2024-01-10T09:16:41;4.88;;;3.85;;
83026;SDS011;72842;56.038;12.706;2024-01-10T09:19:06;6.25;;;4.45;;
83026;SDS011;72842;56.038;12.706;2024-01-10T09:21:32;6.20;;;4.47;;
83026;SDS011;72842;56.038;12.706;2024-01-10T09:23:58;4.65;;;4.15;;
83026;SDS011;72842;56.038;12.706;2024-01-10T09:26:23;5.45;;;4.10;;
83026;SDS011;72842;56.038;12.706;2024-01-10T09:28:49;4.00;;;3.45;;
83026;SDS011;72842;56.038;12.706;2024-01-10T09:31:14;5.07;;;3.13;;
83026;SDS011;72842;56.038;12.706;2024-01-10T09:33:40;4.85;;;3.60;;
83026;SDS011;72842;56.038;12.706;2024-01-10T09:36:06;5.85;;;4.30;;
83026;SDS011;72842;56.038;12.706;2024-01-10T09:38:37;6.25;;;4.38;;
83026;SDS011;72842;56.038;12.706;2024-01-10T09:41:04;5.25;;;3.67;;
83026;SDS011;72842;56.038;12.706;2024-01-10T09:43:30;4.18;;;3.42;;
83026;SDS011;72842;56.038;12.706;2024-01-10T09:45:57;4.82;;;3.72;;
83026;SDS011;72842;56.038;12.706;2024-01-10T09:48:24;4.82;;;3.78;;
83026;SDS011;72842;56.038;12.706;2024-01-10T09:50:50;4.30;;;3.78;;
83026;SDS011;72842;56.038;12.706;2024-01-10T09:53:26;4.85;;;3.53;;
83026;SDS011;72842;56.038;12.706;2024-01-10T09:55:52;5.20;;;3.83;;
83026;SDS011;72842;56.038;12.706;2024-01-10T09:58:24;6.57;;;3.95;;
83026;SDS011;72842;56.038;12.706;2024-01-10T10:00:50;4.70;;;3.70;;
83026;SDS011;72842;56.038;12.706;2024-01-10T10:03:16;4.85;;;4.18;;
83026;SDS011;72842;56.038;12.706;2024-01-10T10:05:43;3.70;;;3.22;;
83026;SDS011;72842;56.038;12.706;2024-01-10T10:08:10;4.25;;;3.63;;
83026;SDS011;72842;56.038;12.706;2024-01-10T10:10:37;5.38;;;4.00;;
83026;SDS011;72842;56.038;12.706;2024-01-10T10:13:08;4.90;;;4.07;;
83026;SDS011;72842;56.038;12.706;2024-01-10T10:15:36;5.32;;;3.58;;
83026;SDS011;72842;56.038;12.706;2024-01-10T10:18:02;5.85;;;3.65;;
83026;SDS011;72842;56.038;12.706;2024-01-10T10:20:28;5.15;;;3.47;;
83026;SDS011;72842;56.038;12.706;2024-01-10T10:23:01;4.18;;;3.75;;
83026;SDS011;72842;56.038;12.706;2024-01-10T10:27:55;3.97;;;3.42;;
83026;SDS011;72842;56.038;12.706;2024-01-10T10:30:21;3.65;;;3.35;;
83026;SDS011;72842;56.038;12.706;2024-01-10T10:32:47;3.78;;;3.20;;
83026;SDS011;72842;56.038;12.706;2024-01-10T10:35:13;4.15;;;3.72;;
83026;SDS011;72842;56.038;12.706;2024-01-10T10:37:38;3.33;;;2.80;;
83026;SDS011;72842;56.038;12.706;2024-01-10T10:40:04;4.35;;;3.33;;
83026;SDS011;72842;56.038;12.706;2024-01-10T10:42:31;4.13;;;3.55;;
83026;SDS011;72842;56.038;12.706;2024-01-10T10:44:59;5.03;;;3.65;;
83026;SDS011;72842;56.038;12.706;2024-01-10T10:47:29;3.65;;;3.28;;
83026;SDS011;72842;56.038;12.706;2024-01-10T10:49:59;4.05;;;3.63;;
83026;SDS011;72842;56.038;12.706;2024-01-10T10:52:28;4.55;;;2.90;;
83026;SDS011;72842;56.038;12.706;2024-01-10T10:54:54;4.20;;;2.97;;
83026;SDS011;72842;56.038;12.706;2024-01-10T10:57:22;4.88;;;3.20;;
83026;SDS011;72842;56.038;12.706;2024-01-10T10:59:51;3.35;;;3.03;;
83026;SDS011;72842;56.038;12.706;2024-01-10T11:02:20;3.65;;;3.33;;
83026;SDS011;72842;56.038;12.706;2024-01-10T11:04:49;4.80;;;3.22;;
83026;SDS011;72842;56.038;12.706;2024-01-10T11:07:15;4.28;;;3.20;;
83026;SDS011;72842;56.038;12.706;2024-01-10T11:09:41;5.25;;;3.45;;
83026;SDS011;72842;56.038;12.706;2024-01-10T11:12:16;4.55;;;3.05;;
83026;SDS011;72842;56.038;12.706;2024-01-10T11:15:50;3.20;;;2.90;;
83026;SDS011;72842;56.038;12.706;2024-01-10T11:23:53;4.30;;;3.20;;
83026;SDS011;72842;56.038;12.706;2024-01-10T11:26:21;3.97;;;3.20;;
83026;SDS011;72842;56.038;12.706;2024-01-10T11:28:47;4.03;;;2.83;;
83026;SDS011;72842;56.038;12.706;2024-01-10T11:31:13;3.40;;;2.97;;
83026;SDS011;72842;56.038;12.706;2024-01-10T11:33:41;3.70;;;3.00;;
83026;SDS011;72842;56.038;12.706;2024-01-10T11:38:40;3.53;;;3.13;;
83026;SDS011;72842;56.038;12.706;2024-01-10T11:41:15;4.32;;;3.60;;
83026;SDS011;72842;56.038;12.706;2024-01-10T11:46:54;3.42;;;2.80;;
83026;SDS011;72842;56.038;12.706;2024-01-10T11:49:21;3.72;;;2.97;;
83026;SDS011;72842;56.038;12.706;2024-01-10T11:51:52;3.60;;;2.88;;
83026;SDS011;72842;56.038;12.706;2024-01-10T11:57:20;3.75;;;2.83;;
83026;SDS011;72842;56.038;12.706;2024-01-10T11:59:52;3.58;;;2.83;;
83026;SDS011;72842;56.038;12.706;2024-01-10T12:02:20;3.88;;;3.22;;
83026;SDS011;72842;56.038;12.706;2024-01-10T12:04:46;3.05;;;2.70;;
83026;SDS011;72842;56.038;12.706;2024-01-10T12:07:12;3.90;;;2.85;;
83026;SDS011;72842;56.038;12.706;2024-01-10T12:09:39;3.65;;;2.92;;
83026;SDS011;72842;56.038;12.706;2024-01-10T12:12:04;3.13;;;2.38;;
83026;SDS011;72842;56.038;12.706;2024-01-10T12:14:31;4.53;;;3.30;;
83026;SDS011;72842;56.038;12.706;2024-01-10T12:16:57;3.40;;;3.10;;
83026;SDS011;72842;56.038;12.706;2024-01-10T12:19:22;4.85;;;3.00;;
83026;SDS011;72842;56.038;12.706;2024-01-10T12:21:48;3.25;;;2.72;;
83026;SDS011;72842;56.038;12.706;2024-01-10T12:24:14;3.15;;;2.83;;
83026;SDS011;72842;56.038;12.706;2024-01-10T12:26:43;3.38;;;2.95;;
83026;SDS011;72842;56.038;12.706;2024-01-10T12:29:12;3.60;;;2.72;;
83026;SDS011;72842;56.038;12.706;2024-01-10T12:31:38;4.72;;;3.58;;
83026;SDS011;72842;56.038;12.706;2024-01-10T12:34:06;3.95;;;3.20;;
83026;SDS011;72842;56.038;12.706;2024-01-10T12:36:33;4.05;;;3.20;;
83026;SDS011;72842;56.038;12.706;2024-01-10T12:38:58;4.65;;;3.50;;
83026;SDS011;72842;56.038;12.706;2024-01-10T12:41:24;4.35;;;3.15;;
83026;SDS011;72842;56.038;12.706;2024-01-10T12:43:54;6.38;;;3.40;;
83026;SDS011;72842;56.038;12.706;2024-01-10T12:46:20;3.55;;;3.00;;
83026;SDS011;72842;56.038;12.706;2024-01-10T12:48:58;3.53;;;2.58;;
83026;SDS011;72842;56.038;12.706;2024-01-10T12:51:28;4.38;;;2.85;;
83026;SDS011;72842;56.038;12.706;2024-01-10T12:53:55;5.15;;;3.55;;
83026;SDS011;72842;56.038;12.706;2024-01-10T12:56:21;3.53;;;3.05;;
83026;SDS011;72842;56.038;12.706;2024-01-10T12:58:47;4.05;;;3.53;;
83026;SDS011;72842;56.038;12.706;2024-01-10T13:01:12;3.55;;;3.22;;
83026;SDS011;72842;56.038;12.706;2024-01-10T13:03:38;5.05;;;3.28;;
83026;SDS011;72842;56.038;12.706;2024-01-10T13:06:04;4.43;;;3.38;;
83026;SDS011;72842;56.038;12.706;2024-01-10T13:08:30;4.57;;;3.90;;
83026;SDS011;72842;56.038;12.706;2024-01-10T13:10:59;4.82;;;3.65;;
83026;SDS011;72842;56.038;12.706;2024-01-10T13:13:25;3.90;;;3.53;;
83026;SDS011;72842;56.038;12.706;2024-01-10T13:15:50;4.75;;;3.45;;
83026;SDS011;72842;56.038;12.706;2024-01-10T13:18:16;4.45;;;3.92;;
83026;SDS011;72842;56.038;12.706;2024-01-10T13:20:42;5.53;;;3.47;;
83026;SDS011;72842;56.038;12.706;2024-01-10T13:23:08;5.68;;;3.80;;
83026;SDS011;72842;56.038;12.706;2024-01-10T13:25:36;4.97;;;3.80;;
83026;SDS011;72842;56.038;12.706;2024-01-10T13:28:05;5.53;;;4.18;;
83026;SDS011;72842;56.038;12.706;2024-01-10T13:30:31;4.95;;;4.35;;
83026;SDS011;72842;56.038;12.706;2024-01-10T13:32:56;6.63;;;3.88;;
83026;SDS011;72842;56.038;12.706;2024-01-10T13:35:23;6.10;;;4.15;;
83026;SDS011;72842;56.038;12.706;2024-01-10T13:37:49;6.28;;;4.20;;
83026;SDS011;72842;56.038;12.706;2024-01-10T13:40:14;5.05;;;4.13;;
83026;SDS011;72842;56.038;12.706;2024-01-10T13:42:40;6.80;;;4.05;;
83026;SDS011;72842;56.038;12.706;2024-01-10T13:45:06;5.45;;;4.05;;
83026;SDS011;72842;56.038;12.706;2024-01-10T13:47:38;6.75;;;4.45;;
83026;SDS011;72842;56.038;12.706;2024-01-10T13:50:07;6.68;;;4.18;;
83026;SDS011;72842;56.038;12.706;2024-01-10T13:52:33;5.72;;;3.55;;
83026;SDS011;72842;56.038;12.706;2024-01-10T13:54:59;5.55;;;4.30;;
83026;SDS011;72842;56.038;12.706;2024-01-10T13:57:25;5.88;;;4.30;;
83026;SDS011;72842;56.038;12.706;2024-01-10T13:59:51;6.00;;;3.80;;
83026;SDS011;72842;56.038;12.706;2024-01-10T14:02:20;5.00;;;3.65;;
83026;SDS011;72842;56.038;12.706;2024-01-10T14:04:46;6.88;;;4.30;;
83026;SDS011;72842;56.038;12.706;2024-01-10T14:07:12;6.50;;;3.95;;
83026;SDS011;72842;56.038;12.706;2024-01-10T14:09:37;6.55;;;4.07;;
83026;SDS011;72842;56.038;12.706;2024-01-10T14:12:03;5.68;;;3.60;;
83026;SDS011;72842;56.038;12.706;2024-01-10T14:14:28;6.85;;;3.75;;
83026;SDS011;72842;56.038;12.706;2024-01-10T14:16:54;6.32;;;4.55;;
83026;SDS011;72842;56.038;12.706;2024-01-10T14:19:19;5.25;;;3.70;;
83026;SDS011;72842;56.038;12.706;2024-01-10T14:21:44;6.72;;;4.05;;
83026;SDS011;72842;56.038;12.706;2024-01-10T14:24:13;4.25;;;3.67;;
83026;SDS011;72842;56.038;12.706;2024-01-10T14:26:39;6.28;;;4.22;;
83026;SDS011;72842;56.038;12.706;2024-01-10T14:29:04;5.47;;;3.42;;
83026;SDS011;72842;56.038;12.706;2024-01-10T14:31:30;7.22;;;3.72;;
83026;SDS011;72842;56.038;12.706;2024-01-10T14:33:55;7.57;;;3.85;;
83026;SDS011;72842;56.038;12.706;2024-01-10T14:36:21;4.90;;;3.28;;
83026;SDS011;72842;56.038;12.706;2024-01-10T14:38:47;5.85;;;3.75;;
83026;SDS011;72842;56.038;12.706;2024-01-10T14:41:12;5.60;;;3.58;;
83026;SDS011;72842;56.038;12.706;2024-01-10T14:43:38;5.25;;;3.20;;
83026;SDS011;72842;56.038;12.706;2024-01-10T14:46:04;5.47;;;3.83;;